sensor_id;sensor_type;location;lat;lon;timestamp;temperature;humidity
1447;DHT22;717;51.522;7.266;2022-10-03T00:01:00;16.10;99.90
1447;DHT22;717;51.522;7.266;2022-10-03T00:03:33;16.10;99.90
1447;DHT22;717;51.522;7.266;2022-10-03T00:06:09;16.10;99.90
1447;DHT22;717;51.522;7.266;2022-10-03T00:08:57;16.10;99.90
1447;DHT22;717;51.522;7.266;2022-10-03T00:11:35;16.10;99.90
1447;DHT22;717;51.522;7.266;2022-10-03T00:14:10;16.10;99.90
1447;DHT22;717;51.522;7.266;2022-10-03T00:16:46;16.10;99.90
1447;DHT22;717;51.522;7.266;2022-10-03T00:19:23;16.00;99.90
1447;DHT22;717;51.522;7.266;2022-10-03T00:22:01;16.00;99.90
1447;DHT22;717;51.522;7.266;2022-10-03T00:24:40;16.00;99.90
1447;DHT22;717;51.522;7.266;2022-10-03T00:27:16;16.00;99.90
1447;DHT22;717;51.522;7.266;2022-10-03T00:30:04;16.00;99.90
1447;DHT22;717;51.522;7.266;2022-10-03T00:35:40;16.00;99.90
1447;DHT22;717;51.522;7.266;2022-10-03T00:38:26;16.00;99.90
1447;DHT22;717;51.522;7.266;2022-10-03T00:41:17;15.90;99.90
1447;DHT22;717;51.522;7.266;2022-10-03T00:44:24;15.90;99.90
1447;DHT22;717;51.522;7.266;2022-10-03T00:47:27;15.90;99.90
1447;DHT22;717;51.522;7.266;2022-10-03T00:50:26;15.90;99.90
1447;DHT22;717;51.522;7.266;2022-10-03T00:53:09;15.90;99.90
1447;DHT22;717;51.522;7.266;2022-10-03T00:55:48;15.90;99.90
1447;DHT22;717;51.522;7.266;2022-10-03T00:58:34;15.90;99.90
1447;DHT22;717;51.522;7.266;2022-10-03T01:01:20;15.90;99.90
1447;DHT22;717;51.522;7.266;2022-10-03T01:03:56;15.90;99.90
1447;DHT22;717;51.522;7.266;2022-10-03T01:06:35;15.90;99.90
1447;DHT22;717;51.522;7.266;2022-10-03T01:09:25;15.90;99.90
1447;DHT22;717;51.522;7.266;2022-10-03T01:12:16;15.90;99.90
1447;DHT22;717;51.522;7.266;2022-10-03T01:14:55;15.90;99.90
1447;DHT22;717;51.522;7.266;2022-10-03T01:17:31;15.90;99.90
1447;DHT22;717;51.522;7.266;2022-10-03T01:20:13;15.90;99.90
1447;DHT22;717;51.522;7.266;2022-10-03T01:23:21;15.80;99.90
1447;DHT22;717;51.522;7.266;2022-10-03T01:26:04;15.80;99.90
1447;DHT22;717;51.522;7.266;2022-10-03T01:28:42;15.90;99.90
1447;DHT22;717;51.522;7.266;2022-10-03T01:31:32;15.80;99.90
1447;DHT22;717;51.522;7.266;2022-10-03T01:34:06;15.80;99.90
1447;DHT22;717;51.522;7.266;2022-10-03T01:36:40;15.80;99.90
1447;DHT22;717;51.522;7.266;2022-10-03T01:39:13;15.80;99.90
1447;DHT22;717;51.522;7.266;2022-10-03T01:41:49;15.80;99.90
1447;DHT22;717;51.522;7.266;2022-10-03T01:44:22;15.80;99.90
1447;DHT22;717;51.522;7.266;2022-10-03T01:46:53;15.80;99.90
1447;DHT22;717;51.522;7.266;2022-10-03T01:49:27;15.80;99.90
1447;DHT22;717;51.522;7.266;2022-10-03T01:51:58;15.80;99.90
1447;DHT22;717;51.522;7.266;2022-10-03T01:54:32;15.80;99.90
1447;DHT22;717;51.522;7.266;2022-10-03T01:57:12;15.80;99.90
1447;DHT22;717;51.522;7.266;2022-10-03T01:59:47;15.80;99.90
1447;DHT22;717;51.522;7.266;2022-10-03T02:02:23;15.80;99.90
1447;DHT22;717;51.522;7.266;2022-10-03T02:04:55;15.80;99.90
1447;DHT22;717;51.522;7.266;2022-10-03T02:07:28;15.80;99.90
1447;DHT22;717;51.522;7.266;2022-10-03T02:10:05;15.80;99.90
1447;DHT22;717;51.522;7.266;2022-10-03T02:12:39;15.80;99.90
1447;DHT22;717;51.522;7.266;2022-10-03T02:15:18;15.80;99.90
1447;DHT22;717;51.522;7.266;2022-10-03T02:17:53;15.80;99.90
1447;DHT22;717;51.522;7.266;2022-10-03T02:20:31;15.80;99.90
1447;DHT22;717;51.522;7.266;2022-10-03T02:23:00;15.80;99.90
1447;DHT22;717;51.522;7.266;2022-10-03T02:25:40;15.80;99.90
1447;DHT22;717;51.522;7.266;2022-10-03T02:28:47;15.80;99.90
1447;DHT22;717;51.522;7.266;2022-10-03T02:31:51;15.80;99.90
1447;DHT22;717;51.522;7.266;2022-10-03T02:34:46;15.80;99.90
1447;DHT22;717;51.522;7.266;2022-10-03T02:37:43;15.80;99.90
1447;DHT22;717;51.522;7.266;2022-10-03T02:40:33;15.80;99.90
1447;DHT22;717;51.522;7.266;2022-10-03T02:43:30;15.80;99.90
1447;DHT22;717;51.522;7.266;2022-10-03T02:46:32;15.70;99.90
1447;DHT22;717;51.522;7.266;2022-10-03T02:49:32;15.70;99.90
1447;DHT22;717;51.522;7.266;2022-10-03T02:55:22;15.70;99.90
1447;DHT22;717;51.522;7.266;2022-10-03T03:07:31;15.70;99.90
1447;DHT22;717;51.522;7.266;2022-10-03T03:10:37;15.70;99.90
1447;DHT22;717;51.522;7.266;2022-10-03T03:13:31;15.70;99.90
1447;DHT22;717;51.522;7.266;2022-10-03T03:16:41;15.70;99.90
1447;DHT22;717;51.522;7.266;2022-10-03T03:19:44;15.70;99.90
1447;DHT22;717;51.522;7.266;2022-10-03T03:22:28;15.70;99.90
1447;DHT22;717;51.522;7.266;2022-10-03T03:28:12;15.60;99.90
1447;DHT22;717;51.522;7.266;2022-10-03T03:30:54;15.70;99.90
1447;DHT22;717;51.522;7.266;2022-10-03T03:33:29;15.60;99.90
1447;DHT22;717;51.522;7.266;2022-10-03T03:36:04;15.60;99.90
1447;DHT22;717;51.522;7.266;2022-10-03T03:38:39;15.60;99.90
1447;DHT22;717;51.522;7.266;2022-10-03T03:41:26;15.60;99.90
1447;DHT22;717;51.522;7.266;2022-10-03T03:47:07;15.60;99.90
1447;DHT22;717;51.522;7.266;2022-10-03T03:49:50;15.60;99.90
1447;DHT22;717;51.522;7.266;2022-10-03T03:52:36;15.60;99.90
1447;DHT22;717;51.522;7.266;2022-10-03T03:55:26;15.60;99.90
1447;DHT22;717;51.522;7.266;2022-10-03T03:58:21;15.60;99.90
1447;DHT22;717;51.522;7.266;2022-10-03T04:01:04;15.60;99.90
1447;DHT22;717;51.522;7.266;2022-10-03T04:03:45;15.60;99.90
1447;DHT22;717;51.522;7.266;2022-10-03T04:06:26;15.60;99.90
1447;DHT22;717;51.522;7.266;2022-10-03T04:09:20;15.60;99.90
1447;DHT22;717;51.522;7.266;2022-10-03T04:11:57;15.60;99.90
1447;DHT22;717;51.522;7.266;2022-10-03T04:14:48;15.60;99.90
1447;DHT22;717;51.522;7.266;2022-10-03T04:17:35;15.60;99.90
1447;DHT22;717;51.522;7.266;2022-10-03T04:20:39;15.60;99.90
1447;DHT22;717;51.522;7.266;2022-10-03T04:23:20;15.60;99.90
1447;DHT22;717;51.522;7.266;2022-10-03T04:26:10;15.60;99.90
1447;DHT22;717;51.522;7.266;2022-10-03T04:31:56;15.60;99.90
1447;DHT22;717;51.522;7.266;2022-10-03T04:34:35;15.60;99.90
1447;DHT22;717;51.522;7.266;2022-10-03T04:37:16;15.60;99.90
1447;DHT22;717;51.522;7.266;2022-10-03T04:39:55;15.60;99.90
1447;DHT22;717;51.522;7.266;2022-10-03T04:42:35;15.60;99.90
1447;DHT22;717;51.522;7.266;2022-10-03T04:45:30;15.60;99.90
1447;DHT22;717;51.522;7.266;2022-10-03T04:48:08;15.60;99.90
1447;DHT22;717;51.522;7.266;2022-10-03T04:50:43;15.60;99.90
1447;DHT22;717;51.522;7.266;2022-10-03T04:53:21;15.60;99.90
1447;DHT22;717;51.522;7.266;2022-10-03T04:55:53;15.70;99.90
1447;DHT22;717;51.522;7.266;2022-10-03T04:58:30;15.70;99.90
1447;DHT22;717;51.522;7.266;2022-10-03T05:01:09;15.60;99.90
1447;DHT22;717;51.522;7.266;2022-10-03T05:03:44;15.70;99.90
1447;DHT22;717;51.522;7.266;2022-10-03T05:06:24;15.70;99.90
1447;DHT22;717;51.522;7.266;2022-10-03T05:08:58;15.70;99.90
1447;DHT22;717;51.522;7.266;2022-10-03T05:11:43;15.70;99.90
1447;DHT22;717;51.522;7.266;2022-10-03T05:14:20;15.70;99.90
1447;DHT22;717;51.522;7.266;2022-10-03T05:16:56;15.70;99.90
1447;DHT22;717;51.522;7.266;2022-10-03T05:19:42;15.70;99.90
1447;DHT22;717;51.522;7.266;2022-10-03T05:22:19;15.70;99.90
1447;DHT22;717;51.522;7.266;2022-10-03T05:24:56;15.70;99.90
1447;DHT22;717;51.522;7.266;2022-10-03T05:27:35;15.70;99.90
1447;DHT22;717;51.522;7.266;2022-10-03T05:30:14;15.70;99.90
1447;DHT22;717;51.522;7.266;2022-10-03T05:32:46;15.70;99.90
1447;DHT22;717;51.522;7.266;2022-10-03T05:35:27;15.70;99.90
1447;DHT22;717;51.522;7.266;2022-10-03T05:40:59;15.70;99.90
1447;DHT22;717;51.522;7.266;2022-10-03T05:43:43;15.70;99.90
1447;DHT22;717;51.522;7.266;2022-10-03T05:46:20;15.70;99.90
1447;DHT22;717;51.522;7.266;2022-10-03T05:48:50;15.70;99.90
1447;DHT22;717;51.522;7.266;2022-10-03T05:51:42;15.70;99.90
1447;DHT22;717;51.522;7.266;2022-10-03T05:57:29;15.70;99.90
1447;DHT22;717;51.522;7.266;2022-10-03T06:00:19;15.70;99.90
1447;DHT22;717;51.522;7.266;2022-10-03T06:03:15;15.70;99.90
1447;DHT22;717;51.522;7.266;2022-10-03T06:06:12;15.60;99.90
1447;DHT22;717;51.522;7.266;2022-10-03T06:09:05;15.70;99.90
1447;DHT22;717;51.522;7.266;2022-10-03T06:11:55;15.60;99.90
1447;DHT22;717;51.522;7.266;2022-10-03T06:14:31;15.70;99.90
1447;DHT22;717;51.522;7.266;2022-10-03T06:20:35;15.70;99.90
1447;DHT22;717;51.522;7.266;2022-10-03T06:26:42;15.70;99.90
1447;DHT22;717;51.522;7.266;2022-10-03T06:29:41;15.70;99.90
1447;DHT22;717;51.522;7.266;2022-10-03T06:32:39;15.70;99.90
1447;DHT22;717;51.522;7.266;2022-10-03T06:35:31;15.70;99.90
1447;DHT22;717;51.522;7.266;2022-10-03T06:38:33;15.70;99.90
1447;DHT22;717;51.522;7.266;2022-10-03T06:41:43;15.70;99.90
1447;DHT22;717;51.522;7.266;2022-10-03T06:44:35;15.70;99.90
1447;DHT22;717;51.522;7.266;2022-10-03T06:47:21;15.70;99.90
1447;DHT22;717;51.522;7.266;2022-10-03T06:50:27;15.70;99.90
1447;DHT22;717;51.522;7.266;2022-10-03T06:53:13;15.70;99.90
1447;DHT22;717;51.522;7.266;2022-10-03T06:56:05;15.70;99.90
1447;DHT22;717;51.522;7.266;2022-10-03T06:58:55;15.70;99.90
1447;DHT22;717;51.522;7.266;2022-10-03T07:01:49;15.70;99.90
1447;DHT22;717;51.522;7.266;2022-10-03T07:04:30;15.70;99.90
1447;DHT22;717;51.522;7.266;2022-10-03T07:07:25;15.70;99.90
1447;DHT22;717;51.522;7.266;2022-10-03T07:10:20;15.80;99.90
1447;DHT22;717;51.522;7.266;2022-10-03T07:13:19;15.70;99.90
1447;DHT22;717;51.522;7.266;2022-10-03T07:19:16;15.80;99.90
1447;DHT22;717;51.522;7.266;2022-10-03T07:28:22;15.80;99.90
1447;DHT22;717;51.522;7.266;2022-10-03T07:31:07;15.80;99.90
1447;DHT22;717;51.522;7.266;2022-10-03T07:34:09;15.80;99.90
1447;DHT22;717;51.522;7.266;2022-10-03T07:37:01;15.80;99.90
1447;DHT22;717;51.522;7.266;2022-10-03T07:40:11;15.70;99.90
1447;DHT22;717;51.522;7.266;2022-10-03T07:45:40;15.70;99.90
1447;DHT22;717;51.522;7.266;2022-10-03T07:48:38;15.70;99.90
1447;DHT22;717;51.522;7.266;2022-10-03T07:51:12;15.70;99.90
1447;DHT22;717;51.522;7.266;2022-10-03T07:57:06;15.80;99.90
1447;DHT22;717;51.522;7.266;2022-10-03T08:03:14;15.80;99.90
1447;DHT22;717;51.522;7.266;2022-10-03T08:06:14;15.80;99.90
1447;DHT22;717;51.522;7.266;2022-10-03T08:12:39;15.90;99.90
1447;DHT22;717;51.522;7.266;2022-10-03T08:15:22;15.90;99.90
1447;DHT22;717;51.522;7.266;2022-10-03T08:20:51;15.90;99.90
1447;DHT22;717;51.522;7.266;2022-10-03T08:23:59;15.90;99.90
1447;DHT22;717;51.522;7.266;2022-10-03T08:26:48;16.00;99.90
1447;DHT22;717;51.522;7.266;2022-10-03T08:29:39;16.00;99.90
1447;DHT22;717;51.522;7.266;2022-10-03T08:32:34;16.00;99.90
1447;DHT22;717;51.522;7.266;2022-10-03T08:35:20;16.00;99.90
1447;DHT22;717;51.522;7.266;2022-10-03T08:38:22;16.10;99.90
1447;DHT22;717;51.522;7.266;2022-10-03T08:50:51;16.20;99.90
1447;DHT22;717;51.522;7.266;2022-10-03T08:53:43;16.30;99.90
1447;DHT22;717;51.522;7.266;2022-10-03T08:56:17;16.30;99.90
1447;DHT22;717;51.522;7.266;2022-10-03T08:59:12;16.30;99.90
1447;DHT22;717;51.522;7.266;2022-10-03T09:02:10;16.50;99.90
1447;DHT22;717;51.522;7.266;2022-10-03T09:05:10;16.60;99.90
1447;DHT22;717;51.522;7.266;2022-10-03T09:16:57;16.70;99.90
1447;DHT22;717;51.522;7.266;2022-10-03T09:19:44;16.70;99.90
1447;DHT22;717;51.522;7.266;2022-10-03T09:22:39;16.80;99.90
1447;DHT22;717;51.522;7.266;2022-10-03T09:25:23;16.80;99.90
1447;DHT22;717;51.522;7.266;2022-10-03T09:28:19;16.80;99.90
1447;DHT22;717;51.522;7.266;2022-10-03T09:30:56;16.90;99.90
1447;DHT22;717;51.522;7.266;2022-10-03T09:33:59;16.90;99.90
1447;DHT22;717;51.522;7.266;2022-10-03T09:46:27;17.10;99.90
1447;DHT22;717;51.522;7.266;2022-10-03T09:49:31;17.10;99.90
1447;DHT22;717;51.522;7.266;2022-10-03T09:52:28;17.10;99.90
1447;DHT22;717;51.522;7.266;2022-10-03T09:55:20;17.20;99.90
1447;DHT22;717;51.522;7.266;2022-10-03T09:58:07;17.20;99.90
1447;DHT22;717;51.522;7.266;2022-10-03T10:00:51;17.30;99.90
1447;DHT22;717;51.522;7.266;2022-10-03T10:09:37;17.40;99.90
1447;DHT22;717;51.522;7.266;2022-10-03T10:12:39;17.40;99.90
1447;DHT22;717;51.522;7.266;2022-10-03T10:18:32;17.50;99.90
1447;DHT22;717;51.522;7.266;2022-10-03T10:21:35;17.60;99.90
1447;DHT22;717;51.522;7.266;2022-10-03T10:27:44;17.70;99.90
1447;DHT22;717;51.522;7.266;2022-10-03T10:30:50;17.70;99.90
1447;DHT22;717;51.522;7.266;2022-10-03T10:37:29;17.80;99.90
1447;DHT22;717;51.522;7.266;2022-10-03T10:40:40;17.80;99.90
1447;DHT22;717;51.522;7.266;2022-10-03T10:46:31;17.90;99.90
1447;DHT22;717;51.522;7.266;2022-10-03T10:49:55;18.00;99.90
1447;DHT22;717;51.522;7.266;2022-10-03T10:56:16;18.10;99.90
1447;DHT22;717;51.522;7.266;2022-10-03T11:02:34;18.20;99.90
1447;DHT22;717;51.522;7.266;2022-10-03T11:21:19;18.40;99.90
1447;DHT22;717;51.522;7.266;2022-10-03T11:24:13;18.40;99.90
1447;DHT22;717;51.522;7.266;2022-10-03T11:30:05;18.50;99.90
1447;DHT22;717;51.522;7.266;2022-10-03T11:36:13;18.70;99.90
1447;DHT22;717;51.522;7.266;2022-10-03T11:38:54;18.70;99.90
1447;DHT22;717;51.522;7.266;2022-10-03T11:41:44;18.80;99.90
1447;DHT22;717;51.522;7.266;2022-10-03T11:44:20;18.80;99.90
1447;DHT22;717;51.522;7.266;2022-10-03T11:50:16;18.80;99.90
1447;DHT22;717;51.522;7.266;2022-10-03T11:52:58;18.90;99.90
1447;DHT22;717;51.522;7.266;2022-10-03T11:55:32;18.90;99.90
1447;DHT22;717;51.522;7.266;2022-10-03T11:58:19;19.00;99.90
1447;DHT22;717;51.522;7.266;2022-10-03T12:00:59;19.00;99.90
1447;DHT22;717;51.522;7.266;2022-10-03T12:03:35;19.10;99.90
1447;DHT22;717;51.522;7.266;2022-10-03T12:06:11;19.10;99.90
1447;DHT22;717;51.522;7.266;2022-10-03T12:09:09;19.10;99.90
1447;DHT22;717;51.522;7.266;2022-10-03T12:11:45;19.10;99.90
1447;DHT22;717;51.522;7.266;2022-10-03T12:14:25;19.20;99.90
1447;DHT22;717;51.522;7.266;2022-10-03T12:17:01;19.20;99.90
1447;DHT22;717;51.522;7.266;2022-10-03T12:19:33;19.20;99.90
1447;DHT22;717;51.522;7.266;2022-10-03T12:22:07;19.20;99.90
1447;DHT22;717;51.522;7.266;2022-10-03T12:24:39;19.20;99.90
1447;DHT22;717;51.522;7.266;2022-10-03T12:27:14;19.30;99.90
1447;DHT22;717;51.522;7.266;2022-10-03T12:29:50;19.30;99.90
1447;DHT22;717;51.522;7.266;2022-10-03T12:32:26;19.30;99.90
1447;DHT22;717;51.522;7.266;2022-10-03T12:37:49;19.40;99.90
1447;DHT22;717;51.522;7.266;2022-10-03T12:40:24;19.40;99.90
1447;DHT22;717;51.522;7.266;2022-10-03T12:43:03;19.50;99.90
1447;DHT22;717;51.522;7.266;2022-10-03T12:45:35;19.50;99.90
1447;DHT22;717;51.522;7.266;2022-10-03T12:48:25;19.50;99.90
1447;DHT22;717;51.522;7.266;2022-10-03T12:51:00;19.50;99.90
1447;DHT22;717;51.522;7.266;2022-10-03T12:53:34;19.50;99.90
1447;DHT22;717;51.522;7.266;2022-10-03T12:56:10;19.50;99.90
1447;DHT22;717;51.522;7.266;2022-10-03T12:58:48;19.50;99.90
1447;DHT22;717;51.522;7.266;2022-10-03T13:01:27;19.50;99.90
1447;DHT22;717;51.522;7.266;2022-10-03T13:04:00;19.50;99.90
1447;DHT22;717;51.522;7.266;2022-10-03T13:06:38;19.50;99.90
1447;DHT22;717;51.522;7.266;2022-10-03T13:09:23;19.50;99.90
1447;DHT22;717;51.522;7.266;2022-10-03T13:11:59;19.50;99.90
1447;DHT22;717;51.522;7.266;2022-10-03T13:14:42;19.50;99.90
1447;DHT22;717;51.522;7.266;2022-10-03T13:17:18;19.50;99.90
1447;DHT22;717;51.522;7.266;2022-10-03T13:19:53;19.50;99.90
1447;DHT22;717;51.522;7.266;2022-10-03T13:22:31;19.60;99.90
1447;DHT22;717;51.522;7.266;2022-10-03T13:25:03;19.60;99.90
1447;DHT22;717;51.522;7.266;2022-10-03T13:27:40;19.60;99.90
1447;DHT22;717;51.522;7.266;2022-10-03T13:30:15;19.60;99.90
1447;DHT22;717;51.522;7.266;2022-10-03T13:32:46;19.60;99.90
1447;DHT22;717;51.522;7.266;2022-10-03T13:35:25;19.70;99.90
1447;DHT22;717;51.522;7.266;2022-10-03T13:41:11;19.80;99.90
1447;DHT22;717;51.522;7.266;2022-10-03T13:43:47;19.70;99.90
1447;DHT22;717;51.522;7.266;2022-10-03T13:46:25;19.70;99.90
1447;DHT22;717;51.522;7.266;2022-10-03T13:48:57;19.80;99.90
1447;DHT22;717;51.522;7.266;2022-10-03T13:51:33;19.70;99.90
1447;DHT22;717;51.522;7.266;2022-10-03T13:54:03;19.80;99.90
1447;DHT22;717;51.522;7.266;2022-10-03T13:56:42;19.80;99.90
1447;DHT22;717;51.522;7.266;2022-10-03T13:59:28;19.80;99.90
1447;DHT22;717;51.522;7.266;2022-10-03T14:02:04;19.80;99.90
1447;DHT22;717;51.522;7.266;2022-10-03T14:04:54;19.80;99.90
1447;DHT22;717;51.522;7.266;2022-10-03T14:07:31;19.80;99.90
1447;DHT22;717;51.522;7.266;2022-10-03T14:10:10;19.90;99.90
1447;DHT22;717;51.522;7.266;2022-10-03T14:12:50;19.90;99.90
1447;DHT22;717;51.522;7.266;2022-10-03T14:15:28;20.00;99.90
1447;DHT22;717;51.522;7.266;2022-10-03T14:18:06;20.10;99.90
1447;DHT22;717;51.522;7.266;2022-10-03T14:20:40;20.10;99.90
1447;DHT22;717;51.522;7.266;2022-10-03T14:23:28;20.20;99.90
1447;DHT22;717;51.522;7.266;2022-10-03T14:26:02;20.20;99.90
1447;DHT22;717;51.522;7.266;2022-10-03T14:28:36;20.30;99.90
1447;DHT22;717;51.522;7.266;2022-10-03T14:31:09;20.30;99.90
1447;DHT22;717;51.522;7.266;2022-10-03T14:33:44;20.40;99.90
1447;DHT22;717;51.522;7.266;2022-10-03T14:36:23;20.40;99.90
1447;DHT22;717;51.522;7.266;2022-10-03T14:41:57;20.40;99.90
1447;DHT22;717;51.522;7.266;2022-10-03T14:44:35;20.40;99.90
1447;DHT22;717;51.522;7.266;2022-10-03T14:47:07;20.40;99.90
1447;DHT22;717;51.522;7.266;2022-10-03T14:49:37;20.40;99.90
1447;DHT22;717;51.522;7.266;2022-10-03T14:52:17;20.50;99.90
1447;DHT22;717;51.522;7.266;2022-10-03T14:54:49;20.60;99.90
1447;DHT22;717;51.522;7.266;2022-10-03T14:57:25;20.60;99.90
1447;DHT22;717;51.522;7.266;2022-10-03T14:59:55;20.70;99.90
1447;DHT22;717;51.522;7.266;2022-10-03T15:02:28;20.60;99.90
1447;DHT22;717;51.522;7.266;2022-10-03T15:05:02;20.70;99.90
1447;DHT22;717;51.522;7.266;2022-10-03T15:07:35;20.70;99.90
1447;DHT22;717;51.522;7.266;2022-10-03T15:10:08;20.70;99.90
1447;DHT22;717;51.522;7.266;2022-10-03T15:12:37;20.60;99.90
1447;DHT22;717;51.522;7.266;2022-10-03T15:15:09;20.70;99.90
1447;DHT22;717;51.522;7.266;2022-10-03T15:17:46;20.70;99.90
1447;DHT22;717;51.522;7.266;2022-10-03T15:20:15;20.60;99.90
1447;DHT22;717;51.522;7.266;2022-10-03T15:22:47;20.60;99.90
1447;DHT22;717;51.522;7.266;2022-10-03T15:25:18;20.70;99.90
1447;DHT22;717;51.522;7.266;2022-10-03T15:27:49;20.60;99.90
1447;DHT22;717;51.522;7.266;2022-10-03T15:30:20;20.60;99.90
1447;DHT22;717;51.522;7.266;2022-10-03T15:32:50;20.60;99.90
1447;DHT22;717;51.522;7.266;2022-10-03T15:35:20;20.60;99.90
1447;DHT22;717;51.522;7.266;2022-10-03T15:37:50;20.60;99.90
1447;DHT22;717;51.522;7.266;2022-10-03T15:40:22;20.70;99.90
1447;DHT22;717;51.522;7.266;2022-10-03T15:43:01;20.70;99.90
1447;DHT22;717;51.522;7.266;2022-10-03T15:45:31;20.70;99.90
1447;DHT22;717;51.522;7.266;2022-10-03T15:48:01;20.70;99.90
1447;DHT22;717;51.522;7.266;2022-10-03T15:50:32;20.70;99.90
1447;DHT22;717;51.522;7.266;2022-10-03T15:53:05;20.70;99.90
1447;DHT22;717;51.522;7.266;2022-10-03T15:55:36;20.60;99.90
1447;DHT22;717;51.522;7.266;2022-10-03T15:58:13;20.70;99.90
1447;DHT22;717;51.522;7.266;2022-10-03T16:00:41;20.60;99.90
1447;DHT22;717;51.522;7.266;2022-10-03T16:03:12;20.60;99.90
1447;DHT22;717;51.522;7.266;2022-10-03T16:05:50;20.70;99.90
1447;DHT22;717;51.522;7.266;2022-10-03T16:08:21;20.60;99.90
1447;DHT22;717;51.522;7.266;2022-10-03T16:10:58;20.60;99.90
1447;DHT22;717;51.522;7.266;2022-10-03T16:13:33;20.60;99.90
1447;DHT22;717;51.522;7.266;2022-10-03T16:16:08;20.60;99.90
1447;DHT22;717;51.522;7.266;2022-10-03T16:18:51;20.50;99.90
1447;DHT22;717;51.522;7.266;2022-10-03T16:21:29;20.50;99.90
1447;DHT22;717;51.522;7.266;2022-10-03T16:23:57;20.50;99.90
1447;DHT22;717;51.522;7.266;2022-10-03T16:26:28;20.50;99.90
1447;DHT22;717;51.522;7.266;2022-10-03T16:29:02;20.50;99.90
1447;DHT22;717;51.522;7.266;2022-10-03T16:31:35;20.40;99.90
1447;DHT22;717;51.522;7.266;2022-10-03T16:34:06;20.40;99.90
1447;DHT22;717;51.522;7.266;2022-10-03T16:36:41;20.40;99.90
1447;DHT22;717;51.522;7.266;2022-10-03T16:39:17;20.40;99.90
1447;DHT22;717;51.522;7.266;2022-10-03T16:41:46;20.30;99.90
1447;DHT22;717;51.522;7.266;2022-10-03T16:44:20;20.30;99.90
1447;DHT22;717;51.522;7.266;2022-10-03T16:46:49;20.30;99.90
1447;DHT22;717;51.522;7.266;2022-10-03T16:49:34;20.20;99.90
1447;DHT22;717;51.522;7.266;2022-10-03T16:52:22;20.20;99.90
1447;DHT22;717;51.522;7.266;2022-10-03T16:54:56;20.20;99.90
1447;DHT22;717;51.522;7.266;2022-10-03T16:57:29;20.10;99.90
1447;DHT22;717;51.522;7.266;2022-10-03T16:59:58;20.10;99.90
1447;DHT22;717;51.522;7.266;2022-10-03T17:02:35;20.10;99.90
1447;DHT22;717;51.522;7.266;2022-10-03T17:05:06;20.10;99.90
1447;DHT22;717;51.522;7.266;2022-10-03T17:07:39;20.00;99.90
1447;DHT22;717;51.522;7.266;2022-10-03T17:10:26;20.00;99.90
1447;DHT22;717;51.522;7.266;2022-10-03T17:12:55;19.90;99.90
1447;DHT22;717;51.522;7.266;2022-10-03T17:15:28;19.90;99.90
1447;DHT22;717;51.522;7.266;2022-10-03T17:18:01;19.80;99.90
1447;DHT22;717;51.522;7.266;2022-10-03T17:20:38;19.80;99.90
1447;DHT22;717;51.522;7.266;2022-10-03T17:23:11;19.80;99.90
1447;DHT22;717;51.522;7.266;2022-10-03T17:25:47;19.80;99.90
1447;DHT22;717;51.522;7.266;2022-10-03T17:28:28;19.70;99.90
1447;DHT22;717;51.522;7.266;2022-10-03T17:30:58;19.60;99.90
1447;DHT22;717;51.522;7.266;2022-10-03T17:33:33;19.60;99.90
1447;DHT22;717;51.522;7.266;2022-10-03T17:36:23;19.60;99.90
1447;DHT22;717;51.522;7.266;2022-10-03T17:38:54;19.50;99.90
1447;DHT22;717;51.522;7.266;2022-10-03T17:41:29;19.50;99.90
1447;DHT22;717;51.522;7.266;2022-10-03T17:44:02;19.50;99.90
1447;DHT22;717;51.522;7.266;2022-10-03T17:46:37;19.40;99.90
1447;DHT22;717;51.522;7.266;2022-10-03T17:49:17;19.40;99.90
1447;DHT22;717;51.522;7.266;2022-10-03T17:51:49;19.30;99.90
1447;DHT22;717;51.522;7.266;2022-10-03T17:54:19;19.30;99.90
1447;DHT22;717;51.522;7.266;2022-10-03T17:56:51;19.30;99.90
1447;DHT22;717;51.522;7.266;2022-10-03T17:59:23;19.20;99.90
1447;DHT22;717;51.522;7.266;2022-10-03T18:01:55;19.20;99.90
1447;DHT22;717;51.522;7.266;2022-10-03T18:04:29;19.20;99.90
1447;DHT22;717;51.522;7.266;2022-10-03T18:07:02;19.10;99.90
1447;DHT22;717;51.522;7.266;2022-10-03T18:09:33;19.10;99.90
1447;DHT22;717;51.522;7.266;2022-10-03T18:12:13;19.10;99.90
1447;DHT22;717;51.522;7.266;2022-10-03T18:14:55;19.00;99.90
1447;DHT22;717;51.522;7.266;2022-10-03T18:17:32;19.00;99.90
1447;DHT22;717;51.522;7.266;2022-10-03T18:20:17;18.90;99.90
1447;DHT22;717;51.522;7.266;2022-10-03T18:22:54;18.90;99.90
1447;DHT22;717;51.522;7.266;2022-10-03T18:25:29;18.90;99.90
1447;DHT22;717;51.522;7.266;2022-10-03T18:28:18;18.80;99.90
1447;DHT22;717;51.522;7.266;2022-10-03T18:30:49;18.80;99.90
1447;DHT22;717;51.522;7.266;2022-10-03T18:33:19;18.80;99.90
1447;DHT22;717;51.522;7.266;2022-10-03T18:35:48;18.70;99.90
1447;DHT22;717;51.522;7.266;2022-10-03T18:38:20;18.70;99.90
1447;DHT22;717;51.522;7.266;2022-10-03T18:40:50;18.70;99.90
1447;DHT22;717;51.522;7.266;2022-10-03T18:43:30;18.70;99.90
1447;DHT22;717;51.522;7.266;2022-10-03T18:46:12;18.60;99.90
1447;DHT22;717;51.522;7.266;2022-10-03T18:48:51;18.60;99.90
1447;DHT22;717;51.522;7.266;2022-10-03T18:51:26;18.50;99.90
1447;DHT22;717;51.522;7.266;2022-10-03T18:54:00;18.50;99.90
1447;DHT22;717;51.522;7.266;2022-10-03T18:56:28;18.50;99.90
1447;DHT22;717;51.522;7.266;2022-10-03T18:59:13;18.50;99.90
1447;DHT22;717;51.522;7.266;2022-10-03T19:01:45;18.40;99.90
1447;DHT22;717;51.522;7.266;2022-10-03T19:04:19;18.40;99.90
1447;DHT22;717;51.522;7.266;2022-10-03T19:06:50;18.40;99.90
1447;DHT22;717;51.522;7.266;2022-10-03T19:09:21;18.30;99.90
1447;DHT22;717;51.522;7.266;2022-10-03T19:11:52;18.30;99.90
1447;DHT22;717;51.522;7.266;2022-10-03T19:14:26;18.30;99.90
1447;DHT22;717;51.522;7.266;2022-10-03T19:17:12;18.20;99.90
1447;DHT22;717;51.522;7.266;2022-10-03T19:19:50;18.20;99.90
1447;DHT22;717;51.522;7.266;2022-10-03T19:22:23;18.20;99.90
1447;DHT22;717;51.522;7.266;2022-10-03T19:24:52;18.20;99.90
1447;DHT22;717;51.522;7.266;2022-10-03T19:27:22;18.10;99.90
1447;DHT22;717;51.522;7.266;2022-10-03T19:29:52;18.10;99.90
1447;DHT22;717;51.522;7.266;2022-10-03T19:32:25;18.00;99.90
1447;DHT22;717;51.522;7.266;2022-10-03T19:34:57;18.00;99.90
1447;DHT22;717;51.522;7.266;2022-10-03T19:37:35;18.00;99.90
1447;DHT22;717;51.522;7.266;2022-10-03T19:40:13;17.90;99.90
1447;DHT22;717;51.522;7.266;2022-10-03T19:42:44;17.90;99.90
1447;DHT22;717;51.522;7.266;2022-10-03T19:45:14;17.90;99.90
1447;DHT22;717;51.522;7.266;2022-10-03T19:47:47;17.90;99.90
1447;DHT22;717;51.522;7.266;2022-10-03T19:50:19;17.80;99.90
1447;DHT22;717;51.522;7.266;2022-10-03T19:52:47;17.80;99.90
1447;DHT22;717;51.522;7.266;2022-10-03T19:55:17;17.80;99.90
1447;DHT22;717;51.522;7.266;2022-10-03T19:57:48;17.80;99.90
1447;DHT22;717;51.522;7.266;2022-10-03T20:00:25;17.80;99.90
1447;DHT22;717;51.522;7.266;2022-10-03T20:02:55;17.80;99.90
1447;DHT22;717;51.522;7.266;2022-10-03T20:05:28;17.80;99.90
1447;DHT22;717;51.522;7.266;2022-10-03T20:08:00;17.80;99.90
1447;DHT22;717;51.522;7.266;2022-10-03T20:10:38;17.70;99.90
1447;DHT22;717;51.522;7.266;2022-10-03T20:13:07;17.70;99.90
1447;DHT22;717;51.522;7.266;2022-10-03T20:15:40;17.70;99.90
1447;DHT22;717;51.522;7.266;2022-10-03T20:18:16;17.70;99.90